Halsey, OR (97348)

2:39 PM PDT on October 25, 2014 (GMT -0700)
Lake Creek /I-5 | Change Station
CLOSE
Current Station
Personal Weather Station
Location: Halsey, OR
Elevation: 299 ft
Nearby Weather Stations
Active Advisory: High Wind Warning

Elev 299 ft 44.36 °N, 123.06 °W | Updated 11 minutes ago

Rain
Rain
60.8 °F
Feels Like 60.8 °F
N
15.5
Wind Variable Wind from South

Today
High -- | Low -- °F
--% Chance of Precip.
Yesterday
High -- | Low -- °F
Precip. -- in
7:40 AM 6:11 PM
Waxing Crescent, 4% visible
Pressure 29.46 in
Visibility 10.0 miles
Clouds Few 3300 ft
Scattered Clouds 4100 ft
Mostly Cloudy 4600 ft
Dew Point 56 °F
Humidity 84%
Rainfall 0.36 in
Snow Depth Not available.
UV 2 out of 12
Pollen .30 out of 12
PM2.5 Good
Flu Activity Sporadic
METAR KCVO 252135Z AUTO 19024G31KT 10SM FEW033 SCT041 BKN046 16/11 A2946 RMK AO1

More Conditions Fewer Conditions

Pressure 29.46 in
Visibility 10.0 miles
Clouds Few 3300 ft
Scattered Clouds 4100 ft
Mostly Cloudy 4600 ft
Dew Point 56 °F
Humidity 84%
Rainfall 0.36 in
Snow Depth Not available.
UV 2 out of 12
Pollen .30 out of 12
PM2.5 Good
Flu Activity Sporadic
METAR KCVO 252135Z AUTO 19024G31KT 10SM FEW033 SCT041 BKN046 16/11 A2946 RMK AO1

More Conditions Fewer Conditions

10-Day Weather Forecast

Almanac

Astronomy

Oct. 25, 2014 Rise Set
Actual Time 7:40 AM PDT 6:11 PM PDT
Civil Twilight 7:10 AM PDT 6:41 PM PDT
Nautical Twilight 6:36 AM PDT 7:15 PM PDT
Astronomical Twilight 6:03 AM PDT 7:49 PM PDT
Moon 9:27 AM PDT 7:35 PM PDT
Length of Visible Light 11h 30m
Length of Day
10h 31m
Tomorrow will be 2m 50s shorter.
Waxing Crescent, 4% of the Moon is Illuminated
Today
Waxing Crescent
Oct 30
First Quarter
Nov 6
Full
Nov 14
Last Quarter
Nov 22
New

Today's Extremes

State Highs State Lows

Community

WunderPhotos

Upload Photos

1,765,007 photos uploaded!

Nearby

Air Quality

  Air Quality AQ Index Pollutant
Yesterday Moderate
PM2.5
Current Good
PM2.5
Saturday Good
PM2.5
Sunday Good
PM2.5

Snow Depth

Station Depth Elevation
Daly Lake 0 in 3600 ft
Holland Meadows 0 in 4900 ft
Hogg Pass 1 in 4760 ft
Mckenzie 0 in 4800 ft
Roaring River 0 in 4900 ft

Earthquake Activity

City Distance Mag. Time & Date
No recent earthquake activity has been reported nearby.
Minimum magnitude displayed is 2.5.

Coastal Water Temperatures

Place Temperature
No Stations Reporting

Nearby Weather Stations